Aviation Digital Data Service (ADDS)

Output produced by TAFs form (0000 UTC 26 May 2017)
found at http://aviationweather.gov/adds/tafs/
 
KFMN 252330Z 2600/2624 25025G35KT P6SM SCT130 
     FM260200 26011G19KT P6SM SCT130 
     FM260800 08007KT P6SM FEW130 
     FM262030 24014G24KT P6SM FEW150